sensor_id;sensor_type;location;lat;lon;timestamp;P1;durP1;ratioP1;P2;durP2;ratioP2
44746;SDS011;30472;49.490;10.972;2023-03-21T00:01:54;6.50;;;4.83;;
44746;SDS011;30472;49.490;10.972;2023-03-21T00:04:23;5.23;;;4.13;;
44746;SDS011;30472;49.490;10.972;2023-03-21T00:06:50;6.63;;;4.77;;
44746;SDS011;30472;49.490;10.972;2023-03-21T00:09:17;5.27;;;4.73;;
44746;SDS011;30472;49.490;10.972;2023-03-21T00:11:43;7.37;;;4.53;;
44746;SDS011;30472;49.490;10.972;2023-03-21T00:14:09;5.10;;;4.60;;
44746;SDS011;30472;49.490;10.972;2023-03-21T00:16:39;7.53;;;4.70;;
44746;SDS011;30472;49.490;10.972;2023-03-21T00:19:05;4.83;;;4.43;;
44746;SDS011;30472;49.490;10.972;2023-03-21T00:21:31;7.53;;;4.90;;
44746;SDS011;30472;49.490;10.972;2023-03-21T00:24:02;7.33;;;5.20;;
44746;SDS011;30472;49.490;10.972;2023-03-21T00:26:28;5.23;;;4.70;;
44746;SDS011;30472;49.490;10.972;2023-03-21T00:28:55;6.90;;;4.90;;
44746;SDS011;30472;49.490;10.972;2023-03-21T00:31:21;5.10;;;4.60;;
44746;SDS011;30472;49.490;10.972;2023-03-21T00:33:47;6.37;;;5.27;;
44746;SDS011;30472;49.490;10.972;2023-03-21T00:36:12;6.53;;;4.83;;
44746;SDS011;30472;49.490;10.972;2023-03-21T00:38:39;8.70;;;5.40;;
44746;SDS011;30472;49.490;10.972;2023-03-21T00:41:06;5.60;;;4.33;;
44746;SDS011;30472;49.490;10.972;2023-03-21T00:43:33;5.93;;;5.33;;
44746;SDS011;30472;49.490;10.972;2023-03-21T00:45:59;4.97;;;4.47;;
44746;SDS011;30472;49.490;10.972;2023-03-21T00:48:25;5.73;;;5.13;;
44746;SDS011;30472;49.490;10.972;2023-03-21T00:50:52;5.40;;;4.47;;
44746;SDS011;30472;49.490;10.972;2023-03-21T00:53:19;8.13;;;4.50;;
44746;SDS011;30472;49.490;10.972;2023-03-21T00:55:45;5.40;;;4.90;;
44746;SDS011;30472;49.490;10.972;2023-03-21T00:58:12;6.13;;;4.57;;
44746;SDS011;30472;49.490;10.972;2023-03-21T01:00:37;6.37;;;4.97;;
44746;SDS011;30472;49.490;10.972;2023-03-21T01:03:04;6.17;;;4.90;;
44746;SDS011;30472;49.490;10.972;2023-03-21T01:05:36;8.37;;;5.50;;
44746;SDS011;30472;49.490;10.972;2023-03-21T01:08:22;7.50;;;5.77;;
44746;SDS011;30472;49.490;10.972;2023-03-21T01:10:49;7.23;;;4.73;;
44746;SDS011;30472;49.490;10.972;2023-03-21T01:13:16;5.63;;;5.13;;
44746;SDS011;30472;49.490;10.972;2023-03-21T01:15:45;8.67;;;5.37;;
44746;SDS011;30472;49.490;10.972;2023-03-21T01:18:13;7.00;;;5.40;;
44746;SDS011;30472;49.490;10.972;2023-03-21T01:20:40;6.47;;;5.50;;
44746;SDS011;30472;49.490;10.972;2023-03-21T01:23:07;7.17;;;5.17;;
44746;SDS011;30472;49.490;10.972;2023-03-21T01:25:33;6.20;;;5.60;;
44746;SDS011;30472;49.490;10.972;2023-03-21T01:27:59;6.37;;;5.23;;
44746;SDS011;30472;49.490;10.972;2023-03-21T01:30:24;8.53;;;5.20;;
44746;SDS011;30472;49.490;10.972;2023-03-21T01:32:51;6.33;;;5.73;;
44746;SDS011;30472;49.490;10.972;2023-03-21T01:35:17;5.20;;;4.70;;
44746;SDS011;30472;49.490;10.972;2023-03-21T01:37:42;7.80;;;4.20;;
44746;SDS011;30472;49.490;10.972;2023-03-21T01:40:10;7.53;;;5.47;;
44746;SDS011;30472;49.490;10.972;2023-03-21T01:42:41;6.30;;;5.37;;
44746;SDS011;30472;49.490;10.972;2023-03-21T01:46:05;5.37;;;4.87;;
44746;SDS011;30472;49.490;10.972;2023-03-21T01:48:11;5.77;;;4.77;;
44746;SDS011;30472;49.490;10.972;2023-03-21T01:50:37;5.80;;;4.53;;
44746;SDS011;30472;49.490;10.972;2023-03-21T01:53:04;5.47;;;4.90;;
44746;SDS011;30472;49.490;10.972;2023-03-21T01:55:31;5.33;;;4.70;;
44746;SDS011;30472;49.490;10.972;2023-03-21T01:57:57;8.00;;;5.20;;
44746;SDS011;30472;49.490;10.972;2023-03-21T02:00:26;5.40;;;4.90;;
44746;SDS011;30472;49.490;10.972;2023-03-21T02:02:53;5.33;;;4.83;;
44746;SDS011;30472;49.490;10.972;2023-03-21T02:05:24;6.13;;;5.10;;
44746;SDS011;30472;49.490;10.972;2023-03-21T02:08:02;5.07;;;4.57;;
44746;SDS011;30472;49.490;10.972;2023-03-21T02:10:28;5.50;;;4.77;;
44746;SDS011;30472;49.490;10.972;2023-03-21T02:12:56;7.40;;;4.90;;
44746;SDS011;30472;49.490;10.972;2023-03-21T02:15:33;6.20;;;4.77;;
44746;SDS011;30472;49.490;10.972;2023-03-21T02:18:10;5.80;;;4.97;;
44746;SDS011;30472;49.490;10.972;2023-03-21T02:23:47;6.70;;;4.83;;
44746;SDS011;30472;49.490;10.972;2023-03-21T02:32:17;6.03;;;5.37;;
44746;SDS011;30472;49.490;10.972;2023-03-21T02:37:58;5.93;;;4.53;;
44746;SDS011;30472;49.490;10.972;2023-03-21T02:40:34;4.80;;;4.23;;
44746;SDS011;30472;49.490;10.972;2023-03-21T02:43:12;5.10;;;4.60;;
44746;SDS011;30472;49.490;10.972;2023-03-21T02:46:06;6.53;;;4.87;;
44746;SDS011;30472;49.490;10.972;2023-03-21T02:51:56;6.07;;;4.33;;
44746;SDS011;30472;49.490;10.972;2023-03-21T02:54:23;5.67;;;5.17;;
44746;SDS011;30472;49.490;10.972;2023-03-21T02:56:51;5.97;;;5.37;;
44746;SDS011;30472;49.490;10.972;2023-03-21T02:59:20;7.10;;;5.43;;
44746;SDS011;30472;49.490;10.972;2023-03-21T03:01:49;6.80;;;4.97;;
44746;SDS011;30472;49.490;10.972;2023-03-21T03:04:20;5.33;;;4.83;;
44746;SDS011;30472;49.490;10.972;2023-03-21T03:07:02;10.83;;;5.00;;
44746;SDS011;30472;49.490;10.972;2023-03-21T03:18:02;5.20;;;4.70;;
44746;SDS011;30472;49.490;10.972;2023-03-21T03:20:42;6.33;;;4.43;;
44746;SDS011;30472;49.490;10.972;2023-03-21T03:26:16;7.43;;;4.60;;
44746;SDS011;30472;49.490;10.972;2023-03-21T03:28:48;5.73;;;4.37;;
44746;SDS011;30472;49.490;10.972;2023-03-21T03:31:18;6.50;;;5.40;;
44746;SDS011;30472;49.490;10.972;2023-03-21T03:33:50;19.30;;;14.20;;
44746;SDS011;30472;49.490;10.972;2023-03-21T03:36:19;10.83;;;8.70;;
44746;SDS011;30472;49.490;10.972;2023-03-21T03:38:51;12.40;;;9.20;;
44746;SDS011;30472;49.490;10.972;2023-03-21T03:41:20;7.47;;;6.73;;
44746;SDS011;30472;49.490;10.972;2023-03-21T03:43:51;7.23;;;5.67;;
44746;SDS011;30472;49.490;10.972;2023-03-21T03:46:26;6.77;;;5.37;;
44746;SDS011;30472;49.490;10.972;2023-03-21T03:49:03;10.43;;;5.57;;
44746;SDS011;30472;49.490;10.972;2023-03-21T03:51:42;5.80;;;4.97;;
44746;SDS011;30472;49.490;10.972;2023-03-21T03:54:26;6.23;;;5.63;;
44746;SDS011;30472;49.490;10.972;2023-03-21T03:57:04;5.63;;;4.87;;
44746;SDS011;30472;49.490;10.972;2023-03-21T03:59:35;5.53;;;5.03;;
44746;SDS011;30472;49.490;10.972;2023-03-21T04:02:02;7.00;;;4.43;;
44746;SDS011;30472;49.490;10.972;2023-03-21T04:04:28;8.03;;;5.20;;
44746;SDS011;30472;49.490;10.972;2023-03-21T04:06:55;6.27;;;5.67;;
44746;SDS011;30472;49.490;10.972;2023-03-21T04:09:21;9.83;;;8.73;;
44746;SDS011;30472;49.490;10.972;2023-03-21T04:11:47;6.57;;;5.57;;
44746;SDS011;30472;49.490;10.972;2023-03-21T04:14:13;7.57;;;5.80;;
44746;SDS011;30472;49.490;10.972;2023-03-21T04:16:38;5.60;;;5.10;;
44746;SDS011;30472;49.490;10.972;2023-03-21T04:19:04;5.90;;;5.13;;
44746;SDS011;30472;49.490;10.972;2023-03-21T04:21:30;5.37;;;4.87;;
44746;SDS011;30472;49.490;10.972;2023-03-21T04:23:55;9.87;;;5.23;;
44746;SDS011;30472;49.490;10.972;2023-03-21T04:26:21;5.33;;;4.83;;
44746;SDS011;30472;49.490;10.972;2023-03-21T04:28:48;6.27;;;4.87;;
44746;SDS011;30472;49.490;10.972;2023-03-21T04:31:14;6.00;;;5.47;;
44746;SDS011;30472;49.490;10.972;2023-03-21T04:33:41;6.63;;;5.70;;
44746;SDS011;30472;49.490;10.972;2023-03-21T04:36:07;6.27;;;5.63;;
44746;SDS011;30472;49.490;10.972;2023-03-21T04:38:33;5.67;;;5.27;;
44746;SDS011;30472;49.490;10.972;2023-03-21T04:41:00;8.03;;;6.30;;
44746;SDS011;30472;49.490;10.972;2023-03-21T04:43:26;6.43;;;5.83;;
44746;SDS011;30472;49.490;10.972;2023-03-21T04:45:52;8.23;;;6.00;;
44746;SDS011;30472;49.490;10.972;2023-03-21T04:48:18;7.87;;;5.67;;
44746;SDS011;30472;49.490;10.972;2023-03-21T04:50:48;7.63;;;5.67;;
44746;SDS011;30472;49.490;10.972;2023-03-21T04:53:14;7.00;;;5.77;;
44746;SDS011;30472;49.490;10.972;2023-03-21T04:55:40;8.00;;;5.43;;
44746;SDS011;30472;49.490;10.972;2023-03-21T04:58:06;9.87;;;6.10;;
44746;SDS011;30472;49.490;10.972;2023-03-21T05:00:31;6.57;;;5.87;;
44746;SDS011;30472;49.490;10.972;2023-03-21T05:03:01;5.77;;;5.27;;
44746;SDS011;30472;49.490;10.972;2023-03-21T05:05:29;6.87;;;6.17;;
44746;SDS011;30472;49.490;10.972;2023-03-21T05:07:55;6.60;;;5.90;;
44746;SDS011;30472;49.490;10.972;2023-03-21T05:10:21;7.10;;;6.03;;
44746;SDS011;30472;49.490;10.972;2023-03-21T05:12:46;8.43;;;5.83;;
44746;SDS011;30472;49.490;10.972;2023-03-21T05:15:12;6.97;;;6.37;;
44746;SDS011;30472;49.490;10.972;2023-03-21T05:17:38;7.60;;;6.23;;
44746;SDS011;30472;49.490;10.972;2023-03-21T05:20:06;6.83;;;6.13;;
44746;SDS011;30472;49.490;10.972;2023-03-21T05:22:35;6.77;;;6.17;;
44746;SDS011;30472;49.490;10.972;2023-03-21T05:25:08;12.07;;;6.53;;
44746;SDS011;30472;49.490;10.972;2023-03-21T05:27:34;10.20;;;6.30;;
44746;SDS011;30472;49.490;10.972;2023-03-21T05:30:01;6.57;;;5.27;;
44746;SDS011;30472;49.490;10.972;2023-03-21T05:32:29;6.90;;;6.20;;
44746;SDS011;30472;49.490;10.972;2023-03-21T05:34:55;7.00;;;5.67;;
44746;SDS011;30472;49.490;10.972;2023-03-21T05:37:21;6.37;;;5.77;;
44746;SDS011;30472;49.490;10.972;2023-03-21T05:39:47;6.10;;;5.53;;
44746;SDS011;30472;49.490;10.972;2023-03-21T05:42:12;6.17;;;5.57;;
44746;SDS011;30472;49.490;10.972;2023-03-21T05:44:38;8.30;;;6.00;;
44746;SDS011;30472;49.490;10.972;2023-03-21T05:47:04;7.67;;;5.40;;
44746;SDS011;30472;49.490;10.972;2023-03-21T05:49:30;8.33;;;6.40;;
44746;SDS011;30472;49.490;10.972;2023-03-21T05:51:56;7.27;;;6.40;;
44746;SDS011;30472;49.490;10.972;2023-03-21T05:54:22;6.10;;;5.07;;
44746;SDS011;30472;49.490;10.972;2023-03-21T05:56:48;6.50;;;5.90;;
44746;SDS011;30472;49.490;10.972;2023-03-21T05:59:14;8.83;;;6.17;;
44746;SDS011;30472;49.490;10.972;2023-03-21T06:01:40;6.93;;;5.60;;
44746;SDS011;30472;49.490;10.972;2023-03-21T06:04:06;6.90;;;5.87;;
44746;SDS011;30472;49.490;10.972;2023-03-21T06:06:31;7.07;;;5.27;;
44746;SDS011;30472;49.490;10.972;2023-03-21T06:08:57;7.17;;;4.93;;
44746;SDS011;30472;49.490;10.972;2023-03-21T06:11:27;6.77;;;6.07;;
44746;SDS011;30472;49.490;10.972;2023-03-21T06:13:55;10.60;;;5.73;;
44746;SDS011;30472;49.490;10.972;2023-03-21T06:16:21;6.93;;;5.37;;
44746;SDS011;30472;49.490;10.972;2023-03-21T06:18:46;7.63;;;5.10;;
44746;SDS011;30472;49.490;10.972;2023-03-21T06:21:12;8.70;;;5.13;;
44746;SDS011;30472;49.490;10.972;2023-03-21T06:23:38;6.67;;;4.87;;
44746;SDS011;30472;49.490;10.972;2023-03-21T06:26:04;5.87;;;4.70;;
44746;SDS011;30472;49.490;10.972;2023-03-21T06:28:30;9.17;;;4.77;;
44746;SDS011;30472;49.490;10.972;2023-03-21T06:30:56;9.40;;;4.77;;
44746;SDS011;30472;49.490;10.972;2023-03-21T06:33:22;8.87;;;4.93;;
44746;SDS011;30472;49.490;10.972;2023-03-21T06:35:51;6.57;;;4.40;;
44746;SDS011;30472;49.490;10.972;2023-03-21T06:38:18;8.00;;;4.90;;
44746;SDS011;30472;49.490;10.972;2023-03-21T06:40:47;6.70;;;4.00;;
44746;SDS011;30472;49.490;10.972;2023-03-21T06:43:13;6.10;;;4.17;;
44746;SDS011;30472;49.490;10.972;2023-03-21T06:45:40;6.27;;;4.50;;
44746;SDS011;30472;49.490;10.972;2023-03-21T06:48:06;10.00;;;4.77;;
44746;SDS011;30472;49.490;10.972;2023-03-21T06:50:32;5.60;;;4.67;;
44746;SDS011;30472;49.490;10.972;2023-03-21T06:52:57;5.73;;;4.63;;
44746;SDS011;30472;49.490;10.972;2023-03-21T06:55:23;8.70;;;4.90;;
44746;SDS011;30472;49.490;10.972;2023-03-21T06:57:54;9.23;;;4.57;;
44746;SDS011;30472;49.490;10.972;2023-03-21T07:00:21;8.00;;;4.10;;
44746;SDS011;30472;49.490;10.972;2023-03-21T07:02:47;7.90;;;4.70;;
44746;SDS011;30472;49.490;10.972;2023-03-21T07:05:13;9.30;;;4.03;;
44746;SDS011;30472;49.490;10.972;2023-03-21T07:07:39;6.70;;;3.93;;
44746;SDS011;30472;49.490;10.972;2023-03-21T07:10:05;7.60;;;4.00;;
44746;SDS011;30472;49.490;10.972;2023-03-21T07:12:32;6.53;;;4.20;;
44746;SDS011;30472;49.490;10.972;2023-03-21T07:14:59;6.53;;;3.50;;
44746;SDS011;30472;49.490;10.972;2023-03-21T07:17:28;7.73;;;3.73;;
44746;SDS011;30472;49.490;10.972;2023-03-21T07:19:54;4.40;;;3.90;;
44746;SDS011;30472;49.490;10.972;2023-03-21T07:22:20;5.40;;;3.50;;
44746;SDS011;30472;49.490;10.972;2023-03-21T07:24:46;10.83;;;3.97;;
44746;SDS011;30472;49.490;10.972;2023-03-21T07:27:13;6.47;;;3.70;;
44746;SDS011;30472;49.490;10.972;2023-03-21T07:29:40;7.20;;;4.10;;
44746;SDS011;30472;49.490;10.972;2023-03-21T07:32:06;7.70;;;3.60;;
44746;SDS011;30472;49.490;10.972;2023-03-21T07:34:32;6.37;;;3.80;;
44746;SDS011;30472;49.490;10.972;2023-03-21T07:36:58;9.27;;;4.30;;
44746;SDS011;30472;49.490;10.972;2023-03-21T07:39:24;5.90;;;4.00;;
44746;SDS011;30472;49.490;10.972;2023-03-21T07:41:51;4.83;;;3.27;;
44746;SDS011;30472;49.490;10.972;2023-03-21T07:44:16;4.93;;;3.10;;
44746;SDS011;30472;49.490;10.972;2023-03-21T07:46:42;6.07;;;3.60;;
44746;SDS011;30472;49.490;10.972;2023-03-21T07:49:07;4.23;;;3.30;;
44746;SDS011;30472;49.490;10.972;2023-03-21T07:51:33;7.45;;;3.10;;
44746;SDS011;30472;49.490;10.972;2023-03-21T07:54:00;5.40;;;3.00;;
44746;SDS011;30472;49.490;10.972;2023-03-21T07:56:27;6.50;;;3.25;;
44746;SDS011;30472;49.490;10.972;2023-03-21T07:58:53;7.40;;;2.97;;
44746;SDS011;30472;49.490;10.972;2023-03-21T08:01:18;5.53;;;3.20;;
44746;SDS011;30472;49.490;10.972;2023-03-21T08:03:45;5.50;;;3.17;;
44746;SDS011;30472;49.490;10.972;2023-03-21T08:06:12;5.18;;;3.08;;
44746;SDS011;30472;49.490;10.972;2023-03-21T08:08:38;4.32;;;3.00;;
44746;SDS011;30472;49.490;10.972;2023-03-21T08:11:04;3.67;;;3.03;;
44746;SDS011;30472;49.490;10.972;2023-03-21T08:13:30;6.38;;;3.28;;
44746;SDS011;30472;49.490;10.972;2023-03-21T08:15:56;6.47;;;3.28;;
44746;SDS011;30472;49.490;10.972;2023-03-21T08:18:21;6.63;;;3.35;;
44746;SDS011;30472;49.490;10.972;2023-03-21T08:20:53;5.93;;;3.05;;
44746;SDS011;30472;49.490;10.972;2023-03-21T08:23:20;3.63;;;2.70;;
44746;SDS011;30472;49.490;10.972;2023-03-21T08:25:50;5.80;;;3.22;;
44746;SDS011;30472;49.490;10.972;2023-03-21T08:28:19;4.63;;;3.03;;
44746;SDS011;30472;49.490;10.972;2023-03-21T08:30:45;5.97;;;3.10;;
44746;SDS011;30472;49.490;10.972;2023-03-21T08:33:11;9.55;;;3.13;;
44746;SDS011;30472;49.490;10.972;2023-03-21T08:35:38;6.50;;;2.80;;
44746;SDS011;30472;49.490;10.972;2023-03-21T08:38:04;4.50;;;2.67;;
44746;SDS011;30472;49.490;10.972;2023-03-21T08:40:30;4.30;;;3.17;;
44746;SDS011;30472;49.490;10.972;2023-03-21T08:42:56;4.55;;;2.95;;
44746;SDS011;30472;49.490;10.972;2023-03-21T08:45:22;6.30;;;2.88;;
44746;SDS011;30472;49.490;10.972;2023-03-21T08:47:48;4.07;;;2.58;;
44746;SDS011;30472;49.490;10.972;2023-03-21T08:50:15;5.10;;;3.03;;
44746;SDS011;30472;49.490;10.972;2023-03-21T08:52:46;6.13;;;3.03;;
44746;SDS011;30472;49.490;10.972;2023-03-21T08:55:12;4.38;;;2.80;;
44746;SDS011;30472;49.490;10.972;2023-03-21T08:57:39;5.90;;;2.97;;
44746;SDS011;30472;49.490;10.972;2023-03-21T09:00:06;4.88;;;2.80;;
44746;SDS011;30472;49.490;10.972;2023-03-21T09:02:45;5.20;;;3.20;;
44746;SDS011;30472;49.490;10.972;2023-03-21T09:05:12;4.65;;;2.70;;
44746;SDS011;30472;49.490;10.972;2023-03-21T09:07:39;5.70;;;2.88;;
44746;SDS011;30472;49.490;10.972;2023-03-21T09:10:06;6.47;;;3.00;;
44746;SDS011;30472;49.490;10.972;2023-03-21T09:12:34;5.13;;;3.03;;
44746;SDS011;30472;49.490;10.972;2023-03-21T09:14:59;3.20;;;2.45;;
44746;SDS011;30472;49.490;10.972;2023-03-21T09:17:27;4.18;;;2.70;;
44746;SDS011;30472;49.490;10.972;2023-03-21T09:19:53;5.82;;;2.80;;
44746;SDS011;30472;49.490;10.972;2023-03-21T09:22:21;3.78;;;2.50;;
44746;SDS011;30472;49.490;10.972;2023-03-21T09:24:47;3.88;;;2.60;;
44746;SDS011;30472;49.490;10.972;2023-03-21T09:27:13;2.90;;;2.28;;
44746;SDS011;30472;49.490;10.972;2023-03-21T09:29:42;3.67;;;2.20;;
44746;SDS011;30472;49.490;10.972;2023-03-21T09:32:08;4.50;;;2.72;;
44746;SDS011;30472;49.490;10.972;2023-03-21T09:34:36;5.40;;;2.28;;
44746;SDS011;30472;49.490;10.972;2023-03-21T09:37:05;2.78;;;2.10;;
44746;SDS011;30472;49.490;10.972;2023-03-21T09:39:34;3.92;;;2.45;;
44746;SDS011;30472;49.490;10.972;2023-03-21T09:47:31;5.82;;;2.30;;
44746;SDS011;30472;49.490;10.972;2023-03-21T09:50:23;3.47;;;2.15;;
44746;SDS011;30472;49.490;10.972;2023-03-21T09:55:29;4.35;;;2.20;;
44746;SDS011;30472;49.490;10.972;2023-03-21T10:00:46;4.10;;;2.33;;
44746;SDS011;30472;49.490;10.972;2023-03-21T10:03:24;4.97;;;2.30;;
44746;SDS011;30472;49.490;10.972;2023-03-21T10:05:59;3.80;;;2.35;;
44746;SDS011;30472;49.490;10.972;2023-03-21T10:08:33;6.43;;;2.30;;
44746;SDS011;30472;49.490;10.972;2023-03-21T10:11:11;5.03;;;2.63;;
44746;SDS011;30472;49.490;10.972;2023-03-21T10:13:51;5.18;;;2.95;;
44746;SDS011;30472;49.490;10.972;2023-03-21T10:16:22;5.93;;;3.10;;
44746;SDS011;30472;49.490;10.972;2023-03-21T10:18:49;4.63;;;2.60;;
44746;SDS011;30472;49.490;10.972;2023-03-21T10:21:25;4.57;;;2.50;;
44746;SDS011;30472;49.490;10.972;2023-03-21T10:23:52;4.87;;;3.17;;
44746;SDS011;30472;49.490;10.972;2023-03-21T10:26:20;5.33;;;2.70;;
44746;SDS011;30472;49.490;10.972;2023-03-21T10:28:50;6.10;;;2.87;;
44746;SDS011;30472;49.490;10.972;2023-03-21T10:31:17;5.80;;;3.30;;
44746;SDS011;30472;49.490;10.972;2023-03-21T10:33:45;6.83;;;3.37;;
44746;SDS011;30472;49.490;10.972;2023-03-21T10:36:17;5.53;;;3.60;;
44746;SDS011;30472;49.490;10.972;2023-03-21T10:38:51;6.13;;;3.97;;
44746;SDS011;30472;49.490;10.972;2023-03-21T10:41:29;5.47;;;3.50;;
44746;SDS011;30472;49.490;10.972;2023-03-21T10:46:36;5.50;;;3.03;;
44746;SDS011;30472;49.490;10.972;2023-03-21T10:49:02;4.97;;;2.90;;
44746;SDS011;30472;49.490;10.972;2023-03-21T10:51:31;5.53;;;3.00;;
44746;SDS011;30472;49.490;10.972;2023-03-21T10:54:02;5.23;;;2.97;;
44746;SDS011;30472;49.490;10.972;2023-03-21T10:56:34;6.53;;;3.43;;
44746;SDS011;30472;49.490;10.972;2023-03-21T10:59:03;7.83;;;3.30;;
44746;SDS011;30472;49.490;10.972;2023-03-21T11:04:15;4.50;;;2.90;;
44746;SDS011;30472;49.490;10.972;2023-03-21T11:06:53;3.93;;;2.80;;
44746;SDS011;30472;49.490;10.972;2023-03-21T11:09:25;4.90;;;3.17;;
44746;SDS011;30472;49.490;10.972;2023-03-21T11:12:11;5.60;;;2.97;;
44746;SDS011;30472;49.490;10.972;2023-03-21T11:14:48;6.30;;;3.13;;
44746;SDS011;30472;49.490;10.972;2023-03-21T11:19:53;4.13;;;3.30;;
44746;SDS011;30472;49.490;10.972;2023-03-21T11:22:23;4.97;;;3.97;;
44746;SDS011;30472;49.490;10.972;2023-03-21T11:24:52;3.70;;;2.80;;
44746;SDS011;30472;49.490;10.972;2023-03-21T11:27:21;6.17;;;3.80;;
44746;SDS011;30472;49.490;10.972;2023-03-21T11:29:48;4.20;;;3.73;;
44746;SDS011;30472;49.490;10.972;2023-03-21T11:32:22;5.03;;;3.40;;
44746;SDS011;30472;49.490;10.972;2023-03-21T11:34:58;6.30;;;3.43;;
44746;SDS011;30472;49.490;10.972;2023-03-21T11:37:27;5.07;;;3.60;;
44746;SDS011;30472;49.490;10.972;2023-03-21T11:40:05;4.03;;;3.60;;
44746;SDS011;30472;49.490;10.972;2023-03-21T11:42:40;5.83;;;3.77;;
44746;SDS011;30472;49.490;10.972;2023-03-21T11:45:12;6.90;;;4.30;;
44746;SDS011;30472;49.490;10.972;2023-03-21T11:47:41;6.70;;;4.03;;
44746;SDS011;30472;49.490;10.972;2023-03-21T11:50:22;5.38;;;3.17;;
44746;SDS011;30472;49.490;10.972;2023-03-21T11:56:36;5.30;;;3.63;;
44746;SDS011;30472;49.490;10.972;2023-03-21T11:59:36;4.53;;;3.05;;
44746;SDS011;30472;49.490;10.972;2023-03-21T12:01:55;3.80;;;3.20;;
44746;SDS011;30472;49.490;10.972;2023-03-21T12:04:51;3.80;;;2.83;;
44746;SDS011;30472;49.490;10.972;2023-03-21T12:09:52;3.83;;;3.10;;
44746;SDS011;30472;49.490;10.972;2023-03-21T12:24:22;7.13;;;3.00;;
44746;SDS011;30472;49.490;10.972;2023-03-21T12:41:01;4.60;;;2.95;;
44746;SDS011;30472;49.490;10.972;2023-03-21T12:44:04;3.85;;;2.80;;
44746;SDS011;30472;49.490;10.972;2023-03-21T12:49:07;4.63;;;2.92;;
44746;SDS011;30472;49.490;10.972;2023-03-21T12:51:45;2.92;;;2.28;;
44746;SDS011;30472;49.490;10.972;2023-03-21T12:56:53;3.63;;;2.60;;
44746;SDS011;30472;49.490;10.972;2023-03-21T12:59:22;3.22;;;2.72;;
44746;SDS011;30472;49.490;10.972;2023-03-21T13:05:14;3.50;;;2.55;;
44746;SDS011;30472;49.490;10.972;2023-03-21T13:07:47;4.53;;;2.70;;
44746;SDS011;30472;49.490;10.972;2023-03-21T13:10:19;3.53;;;2.60;;
44746;SDS011;30472;49.490;10.972;2023-03-21T13:19:06;3.08;;;2.13;;
44746;SDS011;30472;49.490;10.972;2023-03-21T13:24:44;3.33;;;2.00;;
44746;SDS011;30472;49.490;10.972;2023-03-21T13:32:33;3.05;;;2.03;;
44746;SDS011;30472;49.490;10.972;2023-03-21T13:35:03;3.03;;;2.33;;
44746;SDS011;30472;49.490;10.972;2023-03-21T13:37:50;3.40;;;2.10;;
44746;SDS011;30472;49.490;10.972;2023-03-21T13:42:52;2.33;;;2.13;;
44746;SDS011;30472;49.490;10.972;2023-03-21T13:48:30;2.20;;;1.58;;
44746;SDS011;30472;49.490;10.972;2023-03-21T13:51:40;3.28;;;1.80;;
44746;SDS011;30472;49.490;10.972;2023-03-21T13:59:10;3.20;;;2.28;;
44746;SDS011;30472;49.490;10.972;2023-03-21T14:01:58;4.25;;;2.05;;
44746;SDS011;30472;49.490;10.972;2023-03-21T14:04:43;2.15;;;1.80;;
44746;SDS011;30472;49.490;10.972;2023-03-21T14:07:15;2.35;;;1.80;;
44746;SDS011;30472;49.490;10.972;2023-03-21T14:09:48;2.47;;;1.67;;
44746;SDS011;30472;49.490;10.972;2023-03-21T14:12:17;3.50;;;1.75;;
44746;SDS011;30472;49.490;10.972;2023-03-21T14:14:58;3.20;;;1.63;;
44746;SDS011;30472;49.490;10.972;2023-03-21T14:17:47;2.88;;;1.83;;
44746;SDS011;30472;49.490;10.972;2023-03-21T14:20:34;2.30;;;1.93;;
44746;SDS011;30472;49.490;10.972;2023-03-21T14:23:06;2.53;;;1.70;;
44746;SDS011;30472;49.490;10.972;2023-03-21T14:25:33;1.83;;;1.60;;
44746;SDS011;30472;49.490;10.972;2023-03-21T14:28:02;3.27;;;2.20;;
44746;SDS011;30472;49.490;10.972;2023-03-21T14:30:33;3.97;;;1.70;;
44746;SDS011;30472;49.490;10.972;2023-03-21T14:33:49;3.23;;;1.73;;
44746;SDS011;30472;49.490;10.972;2023-03-21T14:35:51;3.10;;;1.80;;
44746;SDS011;30472;49.490;10.972;2023-03-21T14:38:24;3.23;;;1.70;;
44746;SDS011;30472;49.490;10.972;2023-03-21T14:40:54;2.50;;;1.43;;
44746;SDS011;30472;49.490;10.972;2023-03-21T14:43:22;3.73;;;1.80;;
44746;SDS011;30472;49.490;10.972;2023-03-21T14:45:49;2.70;;;2.00;;
44746;SDS011;30472;49.490;10.972;2023-03-21T14:48:19;3.43;;;1.57;;
44746;SDS011;30472;49.490;10.972;2023-03-21T14:50:47;3.10;;;1.80;;
44746;SDS011;30472;49.490;10.972;2023-03-21T14:53:15;2.87;;;1.90;;
44746;SDS011;30472;49.490;10.972;2023-03-21T14:56:08;5.87;;;2.00;;
44746;SDS011;30472;49.490;10.972;2023-03-21T14:58:38;4.43;;;2.13;;
44746;SDS011;30472;49.490;10.972;2023-03-21T15:01:05;3.77;;;2.17;;
44746;SDS011;30472;49.490;10.972;2023-03-21T15:03:37;3.87;;;1.67;;
44746;SDS011;30472;49.490;10.972;2023-03-21T15:06:04;4.50;;;1.90;;
44746;SDS011;30472;49.490;10.972;2023-03-21T15:08:34;2.87;;;1.73;;
44746;SDS011;30472;49.490;10.972;2023-03-21T15:11:02;2.23;;;2.03;;
44746;SDS011;30472;49.490;10.972;2023-03-21T15:13:45;2.57;;;1.80;;
44746;SDS011;30472;49.490;10.972;2023-03-21T15:16:19;3.23;;;2.23;;
44746;SDS011;30472;49.490;10.972;2023-03-21T15:18:45;4.07;;;2.13;;
44746;SDS011;30472;49.490;10.972;2023-03-21T15:21:13;2.20;;;2.00;;
44746;SDS011;30472;49.490;10.972;2023-03-21T15:23:44;2.00;;;1.70;;
44746;SDS011;30472;49.490;10.972;2023-03-21T15:26:15;2.53;;;2.10;;
44746;SDS011;30472;49.490;10.972;2023-03-21T15:28:47;5.30;;;2.50;;
44746;SDS011;30472;49.490;10.972;2023-03-21T15:31:17;3.73;;;2.00;;
44746;SDS011;30472;49.490;10.972;2023-03-21T15:33:48;3.33;;;1.83;;
44746;SDS011;30472;49.490;10.972;2023-03-21T15:36:24;2.13;;;1.83;;
44746;SDS011;30472;49.490;10.972;2023-03-21T15:38:59;3.10;;;2.00;;
44746;SDS011;30472;49.490;10.972;2023-03-21T15:41:30;4.17;;;2.10;;
44746;SDS011;30472;49.490;10.972;2023-03-21T15:46:33;3.33;;;2.20;;
44746;SDS011;30472;49.490;10.972;2023-03-21T15:49:08;3.17;;;2.10;;
44746;SDS011;30472;49.490;10.972;2023-03-21T15:51:37;5.23;;;2.00;;
44746;SDS011;30472;49.490;10.972;2023-03-21T15:54:04;2.70;;;1.80;;
44746;SDS011;30472;49.490;10.972;2023-03-21T15:56:56;2.77;;;1.73;;
44746;SDS011;30472;49.490;10.972;2023-03-21T15:59:35;3.07;;;1.47;;
44746;SDS011;30472;49.490;10.972;2023-03-21T16:02:12;2.60;;;1.77;;
44746;SDS011;30472;49.490;10.972;2023-03-21T16:04:54;2.50;;;1.60;;
44746;SDS011;30472;49.490;10.972;2023-03-21T16:07:25;4.67;;;2.07;;
44746;SDS011;30472;49.490;10.972;2023-03-21T16:09:55;2.57;;;1.50;;
44746;SDS011;30472;49.490;10.972;2023-03-21T16:12:23;3.57;;;1.50;;
44746;SDS011;30472;49.490;10.972;2023-03-21T16:14:49;2.23;;;1.20;;
44746;SDS011;30472;49.490;10.972;2023-03-21T16:17:24;2.03;;;1.70;;
44746;SDS011;30472;49.490;10.972;2023-03-21T16:20:09;4.67;;;2.00;;
44746;SDS011;30472;49.490;10.972;2023-03-21T16:22:41;2.30;;;1.80;;
44746;SDS011;30472;49.490;10.972;2023-03-21T16:25:07;1.90;;;1.80;;
44746;SDS011;30472;49.490;10.972;2023-03-21T16:27:34;1.87;;;1.63;;
44746;SDS011;30472;49.490;10.972;2023-03-21T16:29:59;2.50;;;1.73;;
44746;SDS011;30472;49.490;10.972;2023-03-21T16:32:25;2.03;;;1.80;;
44746;SDS011;30472;49.490;10.972;2023-03-21T16:34:51;4.10;;;2.30;;
44746;SDS011;30472;49.490;10.972;2023-03-21T16:37:17;3.47;;;2.33;;
44746;SDS011;30472;49.490;10.972;2023-03-21T16:39:43;2.30;;;2.10;;
44746;SDS011;30472;49.490;10.972;2023-03-21T16:42:10;4.67;;;2.70;;
44746;SDS011;30472;49.490;10.972;2023-03-21T16:44:36;3.90;;;2.60;;